Cape Coral South, Florida
Current Conditions -  °F | °C
As of 11:12 PM on Sunday 23 Nov 2014 (Local Time) from KFMY Reporting Station
Broken Clouds Broken Clouds  
Wind Chill: 76°   Ceiling: 2800
Heat Index: 76°   Visibility: 10mi
Dew Point: 73°   Wind: 6mph
Humidity: 91%   Direction: 160°SSE
Pressure: 29.94"   Gusts: NA
Location:  26.5503°N, 82.0228°W
Report Text: KFMY 240412Z AUTO 16005KT 10SM FEW022 BKN028 24/23 A2994 RMK AO2 T02440228
Loading
Personal Weather Stations






























Interactive Weather Map New forecast layout! Learn more

10-Day Weather Forecast

Advertisements
Track Severe Weather on mobile